Strona główna
METAR-TAF:

METAR-TAF

Lotnisko :

Lahr, Niemcy

Szerokość geograficzna: 48-22-09N, Długość geograficzna: 007-49-40E, wysokość: 156 m

Aktualna obserwacja pogody

Raport powstał 34 minut temu, godzina 06:20 UTC
Wiatr 8 kt od południowy zachód
Temperatura 2°C
Wilgotność 80%
Ciśnienie 1021 hPa
Widzialność 10 km lub więcej
Brak chmur poniżej 1500 m i brak chmur cumulonimbus

METAR: EDTL 280620Z 22008KT CAVOK 02/M01 Q1021

czas: 07:54 (06:54 UTC)

Prognoza

Raport powstał 39 minut temu, godzina 06:15 UTC
Prognoza ważna od 28 godzina 07 UTC do 28 godzina 15 UTC
Wiatr 7 kt od południowo-południowy zachód
Widzialność 10 km lub więcej
Mało chmury na wysokości 4500 ft

TAF: EDTL 280615Z 2807/2815 20007KT 9999 FEW045

Obserwacja i prognoza pogody dla ponad 4000 lotnisk (raport METAR i TAF).

Dostępne stacje oznaczono żółtymi i czerwonymi punktami na mapie.

Najedź kursorem aby zobaczyć nazwę stacji.

Kliknij aby zobaczyć obserwacje i prognozy pogody.

Aby zmienić mapę: kliknij na zielony przycisk z czarnym krzyżykiem, aby powiększyć; na zielony przycisk z myślnikiem, aby pomniejszyć; na zielone strzałki, aby przejść do map sąsiednich.


METAR-TAF: